Time;durP1;ratioP1;P1;durP2;ratioP2;P2;SDS_P1;SDS_P2;PMS_P1;PMS_P2;Temp;Humidity;BMP_temperature;BMP_pressure;BME280_temperature;BME280_humidity;BME280_pressure;Samples;Min_cycle;Max_cycle;Signal;HPM_P1;HPM_P2
2021/10/06 00:02:04;;;;;;;7.57;2.80;;;;;;;15.44;78.17;98854.06;5103489;28;20052;-94
2021/10/06 00:04:30;;;;;;;10.88;3.00;;;;;;;15.46;78.07;98848.59;5105087;28;20082;-94
2021/10/06 00:06:56;;;;;;;14.57;2.90;;;;;;;15.48;78.34;98855.63;5104212;28;20601;-95
2021/10/06 00:09:24;;;;;;;7.40;2.53;;;;;;;15.56;78.10;98861.50;5103743;28;20501;-94
2021/10/06 00:11:50;;;;;;;10.32;2.53;;;;;;;15.47;78.21;98850.34;5107051;28;20051;-95
2021/10/06 00:14:16;;;;;;;7.57;2.22;;;;;;;15.45;78.24;98834.34;5104114;28;20075;-94
2021/10/06 00:16:43;;;;;;;6.97;2.85;;;;;;;15.46;78.22;98835.22;5105747;28;20076;-95
2021/10/06 00:19:09;;;;;;;7.10;2.70;;;;;;;15.40;78.03;98829.19;5106629;28;20135;-95
2021/10/06 00:21:35;;;;;;;10.73;2.67;;;;;;;15.43;78.29;98833.53;5106672;28;20062;-95
2021/10/06 00:24:01;;;;;;;8.30;2.60;;;;;;;15.44;78.99;98832.63;5103359;28;20050;-95
2021/10/06 00:26:30;;;;;;;9.70;2.60;;;;;;;15.59;78.55;98833.69;5104634;28;20131;-94
2021/10/06 00:28:58;;;;;;;12.18;3.83;;;;;;;15.46;78.17;98814.66;5105019;28;20052;-94
2021/10/06 00:31:24;;;;;;;8.10;2.65;;;;;;;15.44;78.00;98811.19;5105899;28;20063;-94
2021/10/06 00:33:50;;;;;;;10.25;3.15;;;;;;;15.48;77.65;98806.53;5107382;28;20044;-96
2021/10/06 00:36:16;;;;;;;9.13;2.47;;;;;;;15.46;77.59;98805.72;5105626;28;20056;-94
2021/10/06 00:38:42;;;;;;;7.15;2.67;;;;;;;15.46;77.85;98806.63;5104727;28;20397;-95
2021/10/06 00:41:12;;;;;;;11.43;2.40;;;;;;;15.49;77.91;98805.59;5105711;28;20044;-96
2021/10/06 00:43:41;;;;;;;10.65;2.60;;;;;;;15.48;77.87;98801.16;5104862;28;20578;-95
2021/10/06 00:46:10;;;;;;;12.07;2.90;;;;;;;15.75;76.87;98829.41;5104282;28;20062;-95
2021/10/06 00:48:36;;;;;;;8.18;2.88;;;;;;;15.46;77.59;98801.25;5107649;28;20047;-95
2021/10/06 00:51:02;;;;;;;12.55;3.50;;;;;;;15.43;77.63;98800.53;5105678;28;20090;-94
2021/10/06 00:53:28;;;;;;;9.52;2.83;;;;;;;15.42;77.85;98799.66;5105332;28;20044;-94
2021/10/06 00:55:55;;;;;;;6.90;2.35;;;;;;;15.44;78.40;98792.41;5102429;28;20406;-95
2021/10/06 00:58:22;;;;;;;9.70;2.92;;;;;;;15.55;78.27;98803.50;5101706;28;20044;-95
2021/10/06 01:00:52;;;;;;;8.10;2.75;;;;;;;15.55;78.44;98808.00;5103407;28;20378;-94
2021/10/06 01:03:21;;;;;;;5.35;2.58;;;;;;;15.39;78.66;98789.94;5103657;28;20064;-95
2021/10/06 01:05:52;;;;;;;7.85;2.58;;;;;;;15.34;78.83;98783.94;5104721;28;20040;-95
2021/10/06 01:08:19;;;;;;;7.10;2.50;;;;;;;15.39;78.73;98795.28;5102958;28;20048;-94
2021/10/06 01:10:45;;;;;;;7.65;2.50;;;;;;;15.43;78.34;98781.75;5103709;28;20497;-94
2021/10/06 01:13:15;;;;;;;7.45;2.60;;;;;;;15.58;78.31;98799.81;5101770;28;20044;-94
2021/10/06 01:15:42;;;;;;;10.65;3.25;;;;;;;15.54;77.52;98787.47;5106297;28;20048;-95
2021/10/06 01:18:10;;;;;;;9.82;2.50;;;;;;;15.56;76.47;98783.78;5106393;28;20048;-95
2021/10/06 01:20:39;;;;;;;7.55;2.33;;;;;;;15.74;76.83;98791.94;5105716;28;20032;-95
2021/10/06 01:23:06;;;;;;;5.18;2.33;;;;;;;15.72;76.41;98785.78;5105112;28;20098;-94
2021/10/06 01:25:32;;;;;;;8.88;2.53;;;;;;;15.76;76.44;98788.22;5104878;28;20044;-94
2021/10/06 01:27:58;;;;;;;7.72;2.30;;;;;;;15.78;76.35;98782.81;5102553;28;20078;-94
2021/10/06 01:30:25;;;;;;;5.20;2.35;;;;;;;15.79;76.76;98777.38;5105309;28;20052;-94
2021/10/06 01:32:51;;;;;;;10.98;3.10;;;;;;;15.85;76.08;98775.31;5108723;28;20047;-94
2021/10/06 01:35:17;;;;;;;6.15;2.10;;;;;;;15.93;76.00;98782.06;5106928;28;20044;-93
2021/10/06 01:37:45;;;;;;;8.05;2.65;;;;;;;15.97;75.71;98774.75;5108572;28;20047;-94
2021/10/06 01:40:16;;;;;;;5.28;2.40;;;;;;;15.83;75.61;98764.69;5108526;28;20132;-96
2021/10/06 01:42:45;;;;;;;7.63;2.10;;;;;;;15.84;75.75;98765.56;5107026;28;20042;-94
2021/10/06 01:45:17;;;;;;;6.73;2.23;;;;;;;15.87;76.01;98768.06;5108215;28;20044;-95
2021/10/06 01:47:43;;;;;;;7.75;2.40;;;;;;;15.84;76.07;98752.16;5107113;28;20071;-96
2021/10/06 01:50:10;;;;;;;9.80;2.38;;;;;;;15.85;76.42;98752.06;5107591;28;20128;-95
2021/10/06 01:52:36;;;;;;;11.25;2.72;;;;;;;15.95;77.66;98744.44;5102827;28;20097;-94
2021/10/06 01:55:03;;;;;;;8.32;2.45;;;;;;;15.92;79.24;98749.97;5104534;28;20040;-93
2021/10/06 01:57:31;;;;;;;14.23;3.10;;;;;;;15.85;79.53;98751.19;5104392;28;20048;-94
2021/10/06 01:59:57;;;;;;;9.07;2.72;;;;;;;15.80;79.90;98756.78;5105414;28;20048;-95
2021/10/06 02:02:23;;;;;;;7.65;2.63;;;;;;;15.87;81.98;98768.94;5103478;28;20048;-93
2021/10/06 02:04:49;;;;;;;8.98;2.75;;;;;;;15.65;82.53;98742.28;5105932;28;20493;-96
2021/10/06 02:07:15;;;;;;;6.75;2.50;;;;;;;15.65;81.83;98766.41;5104565;28;20040;-95
2021/10/06 02:09:41;;;;;;;6.80;2.78;;;;;;;15.52;81.64;98763.44;5105262;28;20040;-95
2021/10/06 02:12:07;;;;;;;6.55;2.55;;;;;;;15.41;81.63;98753.22;5107016;28;20093;-95
2021/10/06 02:14:36;;;;;;;8.13;2.30;;;;;;;15.50;82.33;98770.66;5107123;28;20044;-95
2021/10/06 02:17:03;;;;;;;11.32;2.67;;;;;;;15.39;81.90;98743.50;5104924;28;20094;-95
2021/10/06 02:19:29;;;;;;;7.60;2.55;;;;;;;15.49;82.49;98760.91;5104202;28;20416;-94
2021/10/06 02:21:55;;;;;;;7.25;2.65;;;;;;;15.39;83.99;98741.69;5103850;28;20118;-96
2021/10/06 02:24:21;;;;;;;6.85;2.40;;;;;;;15.42;82.50;98743.38;5106538;28;20111;-96
2021/10/06 02:26:47;;;;;;;9.65;2.42;;;;;;;15.35;83.19;98745.50;5107913;28;20027;-96
2021/10/06 02:29:13;;;;;;;9.20;3.00;;;;;;;15.41;83.24;98761.25;5107365;28;20501;-96
2021/10/06 02:31:41;;;;;;;10.30;2.75;;;;;;;15.43;83.24;98750.47;5104770;28;20611;-96
2021/10/06 02:34:07;;;;;;;6.88;2.40;;;;;;;15.34;83.82;98743.72;5104050;28;20438;-95
2021/10/06 02:36:33;;;;;;;8.07;2.95;;;;;;;15.39;85.14;98741.69;5101095;28;20075;-96
2021/10/06 02:38:59;;;;;;;9.60;2.78;;;;;;;15.29;86.72;98729.69;5102973;28;20048;-95
2021/10/06 02:41:25;;;;;;;9.88;2.70;;;;;;;15.24;86.85;98723.66;5102512;28;20585;-95
2021/10/06 02:43:51;;;;;;;12.32;3.08;;;;;;;15.17;87.69;98720.41;5103375;28;20062;-95
2021/10/06 02:46:17;;;;;;;6.03;2.70;;;;;;;15.16;88.71;98732.06;5103544;28;20048;-96
2021/10/06 02:48:44;;;;;;;11.95;3.45;;;;;;;15.22;89.11;98744.28;5102815;28;20048;-94
2021/10/06 02:51:11;;;;;;;8.38;2.95;;;;;;;15.08;89.51;98726.19;5103174;28;20075;-95
2021/10/06 02:53:37;;;;;;;9.80;3.15;;;;;;;15.15;89.52;98734.81;5102424;28;20055;-95
2021/10/06 02:56:04;;;;;;;10.60;2.80;;;;;;;15.09;89.29;98732.41;5102623;28;20071;-96
2021/10/06 02:58:30;;;;;;;8.50;2.90;;;;;;;15.10;89.71;98720.78;5103035;28;20047;-96
2021/10/06 03:00:56;;;;;;;6.45;2.65;;;;;;;15.17;89.91;98730.25;5102849;28;20048;-95
2021/10/06 03:03:22;;;;;;;5.43;2.65;;;;;;;15.22;90.68;98727.34;5103068;28;20047;-96
2021/10/06 03:05:49;;;;;;;6.47;2.83;;;;;;;15.10;91.09;98713.59;5102317;28;20048;-95
2021/10/06 03:08:15;;;;;;;8.55;3.10;;;;;;;15.07;90.96;98712.88;5102401;28;20082;-95
2021/10/06 03:10:41;;;;;;;6.30;3.00;;;;;;;15.12;92.01;98721.56;5102804;28;20493;-96
2021/10/06 03:13:07;;;;;;;7.43;3.53;;;;;;;15.23;90.31;98738.00;5102381;28;20039;-96
2021/10/06 03:15:33;;;;;;;6.57;2.92;;;;;;;15.15;91.00;98716.06;5102424;28;20568;-95
2021/10/06 03:17:59;;;;;;;12.15;3.33;;;;;;;15.06;90.65;98700.44;5102981;28;20036;-95
2021/10/06 03:20:25;;;;;;;7.50;2.72;;;;;;;15.07;91.03;98696.78;5102847;28;20052;-96
2021/10/06 03:22:52;;;;;;;7.75;2.90;;;;;;;15.02;91.98;98707.72;5103164;28;20040;-95
2021/10/06 03:25:19;;;;;;;8.65;3.33;;;;;;;14.90;92.22;98698.47;5102983;28;20051;-95
2021/10/06 03:27:44;;;;;;;7.40;2.90;;;;;;;15.04;92.15;98716.56;5102212;28;20059;-95
2021/10/06 03:30:11;;;;;;;7.45;3.00;;;;;;;15.16;93.13;98733.88;5102064;28;20078;-95
2021/10/06 03:32:37;;;;;;;6.90;2.90;;;;;;;15.09;93.31;98716.34;5102491;28;20044;-94
2021/10/06 03:35:05;;;;;;;7.68;3.00;;;;;;;14.97;93.71;98699.06;5102356;28;20048;-96
2021/10/06 03:37:31;;;;;;;8.50;3.03;;;;;;;15.04;93.00;98708.53;5100662;28;20044;-96
2021/10/06 03:39:58;;;;;;;7.88;2.90;;;;;;;14.95;93.11;98680.38;5101932;28;20050;-95
2021/10/06 03:42:24;;;;;;;8.30;3.33;;;;;;;14.97;93.54;98670.44;5100267;28;20048;-95
2021/10/06 03:44:50;;;;;;;6.80;3.28;;;;;;;15.11;92.97;98698.41;5099464;28;20089;-95
2021/10/06 03:47:16;;;;;;;7.88;3.08;;;;;;;15.11;92.87;98701.06;5099845;28;20044;-95
2021/10/06 03:49:42;;;;;;;7.60;3.05;;;;;;;15.09;92.99;98700.28;5101040;28;20044;-95
2021/10/06 03:52:08;;;;;;;8.90;2.70;;;;;;;15.12;93.22;98706.38;5100726;28;20047;-96
2021/10/06 03:54:33;;;;;;;14.63;3.63;;;;;;;15.02;94.32;98686.31;5101817;28;20040;-96
2021/10/06 03:57:01;;;;;;;10.55;3.47;;;;;;;15.05;94.76;98704.03;5103307;28;20047;-96
2021/10/06 03:59:27;;;;;;;5.90;2.63;;;;;;;14.99;95.01;98681.09;5105170;28;20134;-95
2021/10/06 04:01:58;;;;;;;12.18;3.25;;;;;;;15.00;94.84;98675.66;5103491;28;20040;-95
2021/10/06 04:04:25;;;;;;;8.43;2.92;;;;;;;14.93;94.96;98684.06;5106711;28;20044;-95
2021/10/06 04:06:54;;;;;;;8.40;3.60;;;;;;;15.03;95.38;98705.91;5104793;28;20073;-96
2021/10/06 04:09:20;;;;;;;11.20;3.20;;;;;;;14.92;95.33;98699.25;5105698;28;20052;-96
2021/10/06 04:11:46;;;;;;;10.40;3.15;;;;;;;14.93;95.78;98698.31;5103482;28;20056;-95
2021/10/06 04:14:14;;;;;;;9.32;3.15;;;;;;;14.86;96.08;98688.84;5106086;28;20037;-96
2021/10/06 04:16:40;;;;;;;9.75;3.40;;;;;;;14.90;95.57;98684.22;5106724;28;20040;-95
2021/10/06 04:19:06;;;;;;;9.00;3.13;;;;;;;15.08;95.38;98703.91;5104509;28;20135;-95
2021/10/06 04:21:32;;;;;;;10.05;3.65;;;;;;;14.83;96.56;98675.56;5101310;28;20059;-94
2021/10/06 04:23:58;;;;;;;11.27;3.25;;;;;;;14.99;96.78;98700.72;5106564;28;20104;-95
2021/10/06 04:26:25;;;;;;;9.82;3.22;;;;;;;14.93;96.19;98684.94;5106594;28;20055;-96
2021/10/06 04:28:51;;;;;;;7.50;2.83;;;;;;;14.99;96.11;98686.47;5106955;28;20044;-94
2021/10/06 04:31:19;;;;;;;6.55;2.97;;;;;;;15.07;96.16;98684.31;5107017;28;20054;-96
2021/10/06 04:33:46;;;;;;;9.57;3.43;;;;;;;15.14;96.14;98693.78;5107550;28;20037;-95
2021/10/06 04:36:13;;;;;;;7.55;3.20;;;;;;;15.28;95.78;98711.88;5105420;28;20048;-94
2021/10/06 04:38:39;;;;;;;11.80;3.53;;;;;;;15.11;96.22;98677.84;5107355;28;20047;-96
2021/10/06 04:41:09;;;;;;;10.05;3.60;;;;;;;15.11;95.92;98687.69;5087696;28;20049;-96
2021/10/06 04:43:35;;;;;;;10.43;3.30;;;;;;;15.29;96.03;98710.94;5086834;28;20047;-95
2021/10/06 04:46:02;;;;;;;9.75;3.17;;;;;;;15.15;96.25;98692.81;5089203;28;20040;-94
2021/10/06 04:48:30;;;;;;;12.23;3.22;;;;;;;15.20;95.92;98697.97;5088797;28;20048;-94
2021/10/06 04:50:56;;;;;;;7.95;4.43;;;;;;;15.14;96.11;98690.25;5102647;28;20044;-95
2021/10/06 04:53:26;;;;;;;9.98;3.25;;;;;;;15.17;96.70;98698.13;5108917;28;20094;-95
2021/10/06 04:55:53;;;;;;;16.00;3.08;;;;;;;15.20;97.39;98695.28;5108464;28;20052;-96
2021/10/06 04:58:30;;;;;;;5.50;3.33;;;;;;;15.09;97.24;98674.34;5107895;28;20044;-96
2021/10/06 05:00:57;;;;;;;8.75;3.10;;;;;;;15.21;96.88;98697.03;5110408;28;20040;-95
2021/10/06 05:03:23;;;;;;;6.47;3.58;;;;;;;15.16;97.00;98691.91;5110207;28;20100;-96
2021/10/06 05:05:51;;;;;;;7.28;3.53;;;;;;;15.25;97.28;98709.34;5111556;28;20040;-95
2021/10/06 05:08:17;;;;;;;8.35;3.30;;;;;;;15.19;97.72;98696.25;5111512;28;20082;-95
2021/10/06 05:10:43;;;;;;;9.15;3.40;;;;;;;15.20;97.38;98689.91;5110341;28;20044;-95
2021/10/06 05:13:13;;;;;;;8.50;3.60;;;;;;;15.38;96.77;98702.47;5108950;28;20047;-95
2021/10/06 05:15:39;;;;;;;9.40;3.30;;;;;;;15.30;96.89;98677.84;5109635;28;20032;-95
2021/10/06 05:18:05;;;;;;;7.28;3.72;;;;;;;15.26;96.65;98668.22;5109196;28;20044;-96
2021/10/06 05:20:32;;;;;;;10.00;3.50;;;;;;;15.30;97.23;98663.59;5110880;28;20044;-95
2021/10/06 05:22:59;;;;;;;8.57;3.65;;;;;;;15.29;97.20;98660.03;5111156;28;20058;-95
2021/10/06 05:25:26;;;;;;;10.23;3.83;;;;;;;15.42;97.50;98673.72;5114051;28;20077;-94
2021/10/06 05:27:52;;;;;;;9.90;4.15;;;;;;;15.39;97.57;98663.13;5113590;28;20071;-95
2021/10/06 05:30:19;;;;;;;7.93;3.33;;;;;;;15.38;96.87;98662.28;5108911;28;20100;-96
2021/10/06 05:33:04;;;;;;;;;;;;;;;;;;;;;
2021/10/06 05:35:40;;;;;;;10.05;3.70;;;;;;;15.53;96.25;98673.19;5115208;28;20072;-95
2021/10/06 05:38:08;;;;;;;11.43;3.90;;;;;;;15.62;97.06;98694.19;5109317;28;20105;-95
2021/10/06 05:40:34;;;;;;;9.23;3.67;;;;;;;15.47;96.60;98674.34;5110790;28;20052;-94
2021/10/06 05:43:00;;;;;;;9.50;3.75;;;;;;;15.44;96.80;98668.25;5111961;28;20048;-94
2021/10/06 05:45:27;;;;;;;10.90;4.20;;;;;;;15.47;97.12;98670.81;5112612;28;20428;-96
2021/10/06 05:47:53;;;;;;;9.07;3.70;;;;;;;15.46;96.98;98651.19;5112537;28;20058;-95
2021/10/06 05:50:54;;;;;;;11.57;4.32;;;;;;;15.62;97.12;98675.41;5113697;28;20100;-95
2021/10/06 05:53:26;;;;;;;6.68;3.63;;;;;;;15.62;96.81;98662.00;5075963;28;20067;-95
2021/10/06 05:56:25;;;;;;;11.80;3.90;;;;;;;15.75;96.32;98679.25;5108597;28;20054;-95
2021/10/06 05:58:56;;;;;;;8.20;3.63;;;;;;;15.59;95.97;98646.97;5114994;28;20052;-95
2021/10/06 06:01:26;;;;;;;6.00;3.35;;;;;;;15.59;95.35;98640.72;5113585;28;20040;-95
2021/10/06 06:03:53;;;;;;;7.80;3.33;;;;;;;15.81;95.19;98689.69;5113624;28;20058;-94
2021/10/06 06:06:19;;;;;;;9.43;3.67;;;;;;;15.65;95.55;98651.13;5111539;28;20055;-94
2021/10/06 06:08:47;;;;;;;5.55;3.17;;;;;;;15.68;95.17;98653.69;5111320;28;20036;-95
2021/10/06 06:11:14;;;;;;;7.38;3.03;;;;;;;15.76;95.66;98674.75;5108662;28;20506;-96
2021/10/06 06:13:40;;;;;;;6.40;2.75;;;;;;;15.66;94.74;98650.19;5107227;28;20051;-96
2021/10/06 06:16:06;;;;;;;6.32;2.95;;;;;;;15.69;94.50;98649.19;5104350;28;20055;-94
2021/10/06 06:18:32;;;;;;;7.35;2.80;;;;;;;15.76;93.75;98659.53;5106808;28;20186;-94
2021/10/06 06:20:59;;;;;;;7.45;2.85;;;;;;;15.73;93.84;98653.47;5102003;28;20060;-95
2021/10/06 06:23:26;;;;;;;5.97;3.38;;;;;;;15.81;93.74;98662.00;5106786;28;20055;-96
2021/10/06 06:25:53;;;;;;;4.68;2.60;;;;;;;15.82;93.69;98650.31;5104375;28;20036;-96
2021/10/06 06:28:19;;;;;;;7.10;2.90;;;;;;;15.88;93.62;98646.47;5104138;28;20040;-95
2021/10/06 06:30:45;;;;;;;5.53;3.05;;;;;;;15.96;93.50;98646.94;5103874;28;20501;-95
2021/10/06 06:33:11;;;;;;;5.20;2.70;;;;;;;16.04;92.52;98658.16;5100148;28;20076;-93
2021/10/06 06:35:37;;;;;;;8.75;2.92;;;;;;;16.14;92.66;98675.50;5101885;28;20047;-94
2021/10/06 06:38:03;;;;;;;8.40;2.97;;;;;;;16.26;92.23;98689.25;5102669;28;20047;-93
2021/10/06 06:40:29;;;;;;;8.25;2.95;;;;;;;16.27;91.91;98659.66;5100742;28;20048;-94
2021/10/06 06:42:57;;;;;;;6.40;2.67;;;;;;;16.43;90.54;98675.81;5097468;28;20047;-93
2021/10/06 06:45:22;;;;;;;6.45;2.95;;;;;;;16.40;90.91;98651.84;5099215;28;20503;-94
2021/10/06 06:47:48;;;;;;;5.43;2.80;;;;;;;16.53;90.09;98671.69;5097902;28;20107;-94
2021/10/06 06:50:18;;;;;;;8.50;2.83;;;;;;;16.60;89.78;98662.38;5099681;28;20139;-95
2021/10/06 06:52:45;;;;;;;6.82;3.03;;;;;;;16.61;89.00;98642.63;5100850;28;20052;-95
2021/10/06 06:55:11;;;;;;;6.25;2.63;;;;;;;16.60;88.88;98648.94;5103291;28;20052;-95
2021/10/06 06:57:37;;;;;;;5.20;2.30;;;;;;;16.54;89.24;98638.53;5102190;28;20044;-95
2021/10/06 07:00:06;;;;;;;6.07;2.50;;;;;;;16.70;88.74;98653.81;5101393;28;20055;-94
2021/10/06 07:07:40;;;;;;;7.82;2.30;;;;;;;16.85;87.96;98644.97;5081325;28;20071;-96
2021/10/06 07:10:07;;;;;;;4.93;2.25;;;;;;;16.73;87.73;98653.66;5081732;28;20127;-94
2021/10/06 07:12:33;;;;;;;5.35;2.50;;;;;;;16.62;88.83;98648.88;5082732;28;20053;-96
2021/10/06 07:14:59;;;;;;;7.63;2.30;;;;;;;16.61;88.94;98641.75;5083133;28;20088;-95
2021/10/06 07:17:27;;;;;;;4.18;2.22;;;;;;;16.70;88.16;98654.69;5082418;28;20048;-94
2021/10/06 07:19:53;;;;;;;6.55;2.20;;;;;;;16.77;87.03;98652.53;5083498;28;20049;-96
2021/10/06 07:22:19;;;;;;;4.95;2.30;;;;;;;16.74;88.17;98658.06;5084288;28;20102;-95
2021/10/06 07:24:45;;;;;;;5.30;2.10;;;;;;;16.86;87.47;98684.31;5084315;28;20032;-95
2021/10/06 07:27:12;;;;;;;8.40;2.60;;;;;;;16.82;87.77;98674.66;5082318;28;20097;-96
2021/10/06 07:29:38;;;;;;;8.95;2.40;;;;;;;16.67;86.50;98651.31;5079857;28;20082;-95
2021/10/06 07:32:05;;;;;;;6.78;2.50;;;;;;;16.66;85.11;98644.22;5083886;28;20056;-95
2021/10/06 07:34:33;;;;;;;4.75;2.30;;;;;;;16.61;85.29;98647.13;5083100;28;20049;-95
2021/10/06 07:36:59;;;;;;;5.03;2.13;;;;;;;16.57;84.98;98648.25;5084097;28;20142;-96
2021/10/06 07:39:26;;;;;;;5.13;2.40;;;;;;;16.45;85.57;98638.16;5082549;28;20041;-96
2021/10/06 07:41:52;;;;;;;6.90;2.20;;;;;;;16.47;84.55;98644.31;5085080;28;20493;-95
2021/10/06 07:44:18;;;;;;;5.47;2.40;;;;;;;16.45;85.39;98654.28;5081215;28;20040;-96
2021/10/06 07:46:44;;;;;;;9.35;3.00;;;;;;;16.44;86.09;98669.50;5079035;28;20254;-94
2021/10/06 07:49:10;;;;;;;5.68;2.80;;;;;;;16.33;86.12;98637.88;5082099;28;20079;-96
2021/10/06 07:51:38;;;;;;;5.63;2.83;;;;;;;16.30;86.43;98639.84;5084603;28;20044;-95
2021/10/06 07:54:07;;;;;;;8.27;3.97;;;;;;;16.29;86.26;98643.47;5082425;28;20067;-96
2021/10/06 07:56:33;;;;;;;8.65;4.03;;;;;;;16.32;86.45;98636.13;5082560;28;20041;-96
2021/10/06 07:58:59;;;;;;;11.68;4.93;;;;;;;16.43;86.24;98643.59;5083037;28;20215;-96
2021/10/06 08:01:43;;;;;;;13.20;5.07;;;;;;;16.49;85.79;98640.59;5083555;28;20098;-96
2021/10/06 08:04:10;;;;;;;11.20;5.20;;;;;;;16.64;84.86;98644.28;5084070;28;20044;-95
2021/10/06 08:06:37;;;;;;;11.02;4.35;;;;;;;16.77;85.63;98650.72;5084201;28;20108;-95
2021/10/06 08:09:05;;;;;;;8.63;3.00;;;;;;;17.00;84.87;98659.34;5084022;28;20051;-96
2021/10/06 08:11:31;;;;;;;7.80;2.80;;;;;;;17.04;82.79;98650.19;5085101;28;20079;-96
2021/10/06 08:13:58;;;;;;;6.43;2.50;;;;;;;17.11;83.02;98650.72;5086368;28;20124;-96
2021/10/06 08:16:24;;;;;;;8.07;2.40;;;;;;;17.14;82.96;98650.56;5085934;28;20040;-95
2021/10/06 08:18:51;;;;;;;6.70;2.35;;;;;;;17.20;81.93;98652.91;5084650;28;20064;-96
2021/10/06 08:21:17;;;;;;;5.65;2.60;;;;;;;17.28;82.48;98650.63;5082503;28;20555;-95
2021/10/06 08:23:45;;;;;;;4.85;2.30;;;;;;;17.37;81.93;98652.81;5083111;28;20051;-95
2021/10/06 08:26:13;;;;;;;6.55;2.22;;;;;;;17.49;81.24;98645.00;5084264;28;20555;-95
2021/10/06 08:28:40;;;;;;;5.65;2.40;;;;;;;17.58;81.24;98641.78;5080600;28;20056;-95
2021/10/06 08:31:06;;;;;;;4.50;2.00;;;;;;;17.70;79.81;98643.78;5078012;28;20119;-94
2021/10/06 08:33:33;;;;;;;4.15;2.00;;;;;;;17.94;79.13;98657.63;5077810;28;20068;-95
2021/10/06 08:35:59;;;;;;;5.18;2.20;;;;;;;17.99;79.05;98630.44;5085453;28;20109;-95
2021/10/06 08:38:25;;;;;;;4.85;2.53;;;;;;;18.05;78.02;98632.78;5083215;28;20072;-95
2021/10/06 08:40:52;;;;;;;7.55;2.85;;;;;;;18.09;78.48;98638.84;5076247;28;20040;-94
2021/10/06 08:43:18;;;;;;;3.75;2.10;;;;;;;18.05;78.18;98632.78;5081836;28;20049;-92
2021/10/06 08:45:45;;;;;;;3.83;2.10;;;;;;;18.12;77.32;98628.75;5061785;28;20049;-94
2021/10/06 08:48:11;;;;;;;4.05;1.98;;;;;;;18.45;76.15;98649.19;5068123;28;20589;-96
2021/10/06 08:50:39;;;;;;;4.68;1.90;;;;;;;18.52;75.05;98636.22;5071148;28;20064;-94
2021/10/06 08:53:06;;;;;;;5.15;1.95;;;;;;;18.66;74.49;98639.78;5078901;28;20053;-95
2021/10/06 08:55:34;;;;;;;5.07;2.28;;;;;;;18.84;74.34;98645.88;5067605;28;20041;-95
2021/10/06 08:58:04;;;;;;;5.53;2.15;;;;;;;19.03;73.41;98664.47;5080315;28;20037;-95
2021/10/06 09:00:31;;;;;;;3.97;2.20;;;;;;;18.86;72.69;98625.09;5083198;28;20055;-94
2021/10/06 09:03:06;;;;;;;4.70;2.30;;;;;;;18.68;73.95;98627.09;5080590;28;20044;-95
2021/10/06 09:05:33;;;;;;;4.93;2.00;;;;;;;18.83;73.48;98646.00;5078024;28;20036;-93
2021/10/06 09:08:01;;;;;;;3.60;2.00;;;;;;;18.64;74.68;98625.56;5073853;28;20040;-94
2021/10/06 09:10:28;;;;;;;4.80;2.10;;;;;;;18.61;73.60;98615.00;5069599;28;20064;-93
2021/10/06 09:13:04;;;;;;;7.13;2.28;;;;;;;18.81;73.41;98629.94;5067207;28;20368;-94
2021/10/06 09:15:42;;;;;;;6.20;2.13;;;;;;;18.67;73.40;98620.00;5067179;28;20049;-95
2021/10/06 09:18:12;;;;;;;3.20;1.60;;;;;;;18.85;73.67;98638.69;5069489;28;20045;-95
2021/10/06 09:20:39;;;;;;;2.60;1.35;;;;;;;18.93;70.07;98608.56;5068578;28;20049;-95
2021/10/06 09:23:07;;;;;;;2.67;1.20;;;;;;;19.04;70.00;98606.03;5063363;28;20049;-96
2021/10/06 09:25:47;;;;;;;4.32;1.48;;;;;;;18.91;69.35;98595.19;5065373;28;20045;-96
2021/10/06 09:28:27;;;;;;;2.95;1.40;;;;;;;18.97;69.40;98583.13;5063847;28;20045;-95
2021/10/06 09:30:56;;;;;;;3.90;1.60;;;;;;;19.10;69.44;98602.94;5063723;28;20040;-94
2021/10/06 09:33:22;;;;;;;2.35;1.45;;;;;;;19.05;70.36;98594.28;5060076;28;20044;-94
2021/10/06 09:36:07;;;;;;;2.10;1.40;;;;;;;19.32;70.17;98615.03;5063475;28;20036;-96
2021/10/06 09:38:49;;;;;;;3.33;1.80;;;;;;;19.67;68.29;98602.78;5080558;28;20047;-94
2021/10/06 09:41:44;;;;;;;4.07;1.83;;;;;;;20.32;66.01;98598.41;5078981;28;20076;-95
2021/10/06 09:44:13;;;;;;;1.77;1.30;;;;;;;20.65;62.80;98589.78;5019825;28;20041;-95
2021/10/06 09:46:52;;;;;;;2.38;1.27;;;;;;;20.29;60.79;98567.06;5021373;28;20050;-96
2021/10/06 09:49:21;;;;;;;2.25;1.40;;;;;;;20.39;61.47;98569.16;5021236;28;20045;-96
2021/10/06 09:51:49;;;;;;;1.85;1.20;;;;;;;21.02;60.24;98556.53;5024530;28;20066;-96
2021/10/06 09:54:17;;;;;;;1.70;1.25;;;;;;;21.29;58.77;98565.28;5023865;28;20042;-96
2021/10/06 09:56:45;;;;;;;1.70;1.30;;;;;;;21.33;57.77;98549.72;5024733;28;20045;-95
2021/10/06 09:59:14;;;;;;;2.25;1.40;;;;;;;21.36;59.32;98549.50;5022720;28;20315;-96
2021/10/06 10:01:41;;;;;;;2.10;1.73;;;;;;;20.99;59.99;98545.94;5024570;28;20092;-96
2021/10/06 10:04:08;;;;;;;3.83;1.60;;;;;;;21.19;59.53;98544.47;5024418;28;20042;-96
2021/10/06 10:06:35;;;;;;;3.78;1.55;;;;;;;21.30;58.77;98528.31;5022744;28;20065;-96
2021/10/06 10:09:03;;;;;;;3.03;1.70;;;;;;;21.06;58.89;98518.34;5025025;28;20102;-96
2021/10/06 10:11:30;;;;;;;2.10;1.52;;;;;;;21.11;59.39;98524.28;5021781;28;20412;-96
2021/10/06 10:13:56;;;;;;;1.80;1.13;;;;;;;21.20;59.98;98538.94;5021361;28;20484;-94
2021/10/06 10:16:25;;;;;;;2.45;1.50;;;;;;;20.96;58.66;98521.84;5018399;28;20070;-95
2021/10/06 10:18:52;;;;;;;1.65;1.27;;;;;;;21.47;57.77;98510.81;5027487;28;20038;-95
2021/10/06 10:21:19;;;;;;;2.83;1.58;;;;;;;21.70;57.09;98498.25;5074876;28;20048;-95
2021/10/06 10:23:45;;;;;;;1.85;1.20;;;;;;;21.40;57.71;98512.25;5065657;28;20102;-94
2021/10/06 10:26:22;;;;;;;4.20;1.50;;;;;;;21.30;57.43;98493.16;5076459;28;20045;-95
2021/10/06 10:28:48;;;;;;;2.78;1.30;;;;;;;21.48;57.43;98493.63;5061808;28;20037;-96
2021/10/06 10:31:18;;;;;;;2.13;1.27;;;;;;;21.15;58.18;98487.06;5065857;28;20051;-96
2021/10/06 10:33:47;;;;;;;3.28;1.40;;;;;;;20.99;59.20;98491.88;5067954;28;20051;-95
2021/10/06 10:36:48;;;;;;;2.75;1.90;;;;;;;20.94;59.95;98494.91;5082006;28;20037;-95
2021/10/06 10:39:49;;;;;;;3.45;1.70;;;;;;;20.94;60.86;98497.63;5079472;28;20044;-95
2021/10/06 10:42:16;;;;;;;2.38;1.42;;;;;;;20.75;61.37;98478.34;5079689;28;20040;-95
2021/10/06 10:44:43;;;;;;;3.65;1.60;;;;;;;20.64;63.09;98469.16;5074515;28;20044;-95
2021/10/06 10:48:00;;;;;;;3.47;1.77;;;;;;;20.48;61.65;98485.59;5063870;28;20048;-95
2021/10/06 10:50:52;;;;;;;2.35;1.50;;;;;;;20.10;63.11;98459.53;5068302;28;20494;-94
2021/10/06 10:53:20;;;;;;;3.97;1.50;;;;;;;19.93;63.82;98456.28;5054472;28;20050;-94
2021/10/06 10:59:04;;;;;;;4.63;1.60;;;;;;;19.64;67.17;98453.75;5145980;27;20396;-94
2021/10/06 11:01:45;;;;;;;2.55;1.48;;;;;;;19.37;69.63;98424.16;5116089;28;20051;-95
2021/10/06 11:04:14;;;;;;;3.30;1.52;;;;;;;19.21;70.00;98438.66;5107442;28;20527;-94
2021/10/06 11:06:43;;;;;;;2.80;1.40;;;;;;;18.96;70.66;98441.31;5115026;28;20043;-94
2021/10/06 11:09:38;;;;;;;2.03;1.42;;;;;;;18.82;73.63;98466.44;5111691;28;20051;-94
2021/10/06 11:12:32;;;;;;;3.78;1.52;;;;;;;18.58;73.69;98469.75;5096566;28;20044;-94
2021/10/06 11:15:22;;;;;;;3.08;1.70;;;;;;;18.13;75.22;98489.69;5112465;28;20101;-95
2021/10/06 11:18:26;;;;;;;4.57;1.67;;;;;;;17.80;74.75;98485.38;5114717;28;20048;-94
2021/10/06 11:20:59;;;;;;;4.22;1.50;;;;;;;17.49;75.71;98475.63;5110598;28;20370;-93
2021/10/06 11:23:43;;;;;;;4.72;1.55;;;;;;;17.51;78.20;98479.97;5114489;28;20051;-93
2021/10/06 11:26:11;;;;;;;3.97;1.70;;;;;;;17.34;78.56;98445.16;5115770;28;20050;-95
2021/10/06 11:28:40;;;;;;;4.35;1.75;;;;;;;17.17;80.72;98440.78;5119350;28;20040;-95
2021/10/06 11:31:08;;;;;;;3.28;1.65;;;;;;;17.01;78.87;98436.31;5122559;28;20048;-96
2021/10/06 11:33:35;;;;;;;5.53;1.70;;;;;;;16.78;79.40;98434.94;5119904;28;20048;-95
2021/10/06 11:36:09;;;;;;;4.75;2.00;;;;;;;16.83;83.92;98442.78;5124211;28;20123;-96
2021/10/06 11:38:36;;;;;;;4.82;1.90;;;;;;;16.71;83.79;98432.69;5123477;28;20044;-95
2021/10/06 11:41:02;;;;;;;3.45;2.00;;;;;;;16.88;83.43;98456.78;5108002;28;20071;-94
2021/10/06 11:43:37;;;;;;;2.28;1.63;;;;;;;16.52;83.25;98427.50;5105016;28;20044;-95
2021/10/06 11:46:04;;;;;;;5.00;2.00;;;;;;;16.39;84.94;98430.03;5112968;28;20044;-94
2021/10/06 11:48:32;;;;;;;6.60;2.20;;;;;;;16.51;85.39;98439.22;5111534;28;20094;-93
2021/10/06 11:50:58;;;;;;;4.05;1.67;;;;;;;16.47;84.11;98451.94;5111179;28;20487;-95